sensor_id;sensor_type;location;lat;lon;timestamp;P1;durP1;ratioP1;P2;durP2;ratioP2
76336;SDS011;65157;50.082;18.178;2023-04-22T00:00:14;21.90;;;11.80;;
76336;SDS011;65157;50.082;18.178;2023-04-22T00:03:01;25.40;;;11.50;;
76336;SDS011;65157;50.082;18.178;2023-04-22T00:07:55;27.10;;;12.80;;
76336;SDS011;65157;50.082;18.178;2023-04-22T00:10:22;25.30;;;11.80;;
76336;SDS011;65157;50.082;18.178;2023-04-22T00:12:48;26.60;;;11.30;;
76336;SDS011;65157;50.082;18.178;2023-04-22T00:15:18;26.30;;;11.30;;
76336;SDS011;65157;50.082;18.178;2023-04-22T00:17:46;23.70;;;10.20;;
76336;SDS011;65157;50.082;18.178;2023-04-22T00:20:13;21.00;;;10.40;;
76336;SDS011;65157;50.082;18.178;2023-04-22T00:22:40;22.80;;;10.30;;
76336;SDS011;65157;50.082;18.178;2023-04-22T00:25:07;23.60;;;10.40;;
76336;SDS011;65157;50.082;18.178;2023-04-22T00:27:34;22.60;;;10.30;;
76336;SDS011;65157;50.082;18.178;2023-04-22T00:30:01;18.70;;;9.30;;
76336;SDS011;65157;50.082;18.178;2023-04-22T00:32:31;19.20;;;9.60;;
76336;SDS011;65157;50.082;18.178;2023-04-22T00:34:57;21.20;;;10.40;;
76336;SDS011;65157;50.082;18.178;2023-04-22T00:37:24;20.10;;;10.30;;
76336;SDS011;65157;50.082;18.178;2023-04-22T00:39:51;20.10;;;11.90;;
76336;SDS011;65157;50.082;18.178;2023-04-22T00:42:18;21.20;;;11.50;;
76336;SDS011;65157;50.082;18.178;2023-04-22T00:44:45;19.10;;;10.40;;
76336;SDS011;65157;50.082;18.178;2023-04-22T00:47:13;18.00;;;10.00;;
76336;SDS011;65157;50.082;18.178;2023-04-22T00:49:40;19.10;;;9.30;;
76336;SDS011;65157;50.082;18.178;2023-04-22T00:52:07;18.90;;;9.50;;
76336;SDS011;65157;50.082;18.178;2023-04-22T00:54:34;15.70;;;9.10;;
76336;SDS011;65157;50.082;18.178;2023-04-22T00:57:01;23.40;;;10.60;;
76336;SDS011;65157;50.082;18.178;2023-04-22T00:59:30;20.30;;;10.50;;
76336;SDS011;65157;50.082;18.178;2023-04-22T01:01:57;23.40;;;10.10;;
76336;SDS011;65157;50.082;18.178;2023-04-22T01:04:25;19.10;;;10.20;;
76336;SDS011;65157;50.082;18.178;2023-04-22T01:06:52;20.30;;;10.80;;
76336;SDS011;65157;50.082;18.178;2023-04-22T01:09:18;18.20;;;9.60;;
76336;SDS011;65157;50.082;18.178;2023-04-22T01:11:46;19.90;;;10.40;;
76336;SDS011;65157;50.082;18.178;2023-04-22T01:14:13;19.90;;;9.90;;
76336;SDS011;65157;50.082;18.178;2023-04-22T01:16:40;22.10;;;10.40;;
76336;SDS011;65157;50.082;18.178;2023-04-22T01:19:08;18.80;;;10.20;;
76336;SDS011;65157;50.082;18.178;2023-04-22T01:21:37;19.10;;;9.30;;
76336;SDS011;65157;50.082;18.178;2023-04-22T01:24:05;19.60;;;10.30;;
76336;SDS011;65157;50.082;18.178;2023-04-22T01:26:33;20.60;;;10.60;;
76336;SDS011;65157;50.082;18.178;2023-04-22T01:29:00;20.40;;;9.50;;
76336;SDS011;65157;50.082;18.178;2023-04-22T01:31:28;16.60;;;9.80;;
76336;SDS011;65157;50.082;18.178;2023-04-22T01:33:55;21.80;;;10.90;;
76336;SDS011;65157;50.082;18.178;2023-04-22T01:36:22;18.60;;;9.60;;
76336;SDS011;65157;50.082;18.178;2023-04-22T01:38:49;20.40;;;10.70;;
76336;SDS011;65157;50.082;18.178;2023-04-22T01:43:43;19.40;;;9.70;;
76336;SDS011;65157;50.082;18.178;2023-04-22T01:46:10;18.80;;;10.00;;
76336;SDS011;65157;50.082;18.178;2023-04-22T01:48:37;21.20;;;10.60;;
76336;SDS011;65157;50.082;18.178;2023-04-22T01:51:04;20.80;;;10.30;;
76336;SDS011;65157;50.082;18.178;2023-04-22T01:53:31;18.40;;;9.50;;
76336;SDS011;65157;50.082;18.178;2023-04-22T01:55:58;20.70;;;9.60;;
76336;SDS011;65157;50.082;18.178;2023-04-22T01:58:29;22.70;;;10.20;;
76336;SDS011;65157;50.082;18.178;2023-04-22T02:00:59;19.70;;;11.50;;
76336;SDS011;65157;50.082;18.178;2023-04-22T02:03:28;23.00;;;11.30;;
76336;SDS011;65157;50.082;18.178;2023-04-22T02:05:55;19.90;;;10.60;;
76336;SDS011;65157;50.082;18.178;2023-04-22T02:08:22;20.40;;;10.50;;
76336;SDS011;65157;50.082;18.178;2023-04-22T02:10:49;22.90;;;11.30;;
76336;SDS011;65157;50.082;18.178;2023-04-22T02:13:15;24.10;;;11.90;;
76336;SDS011;65157;50.082;18.178;2023-04-22T02:15:42;23.70;;;11.20;;
76336;SDS011;65157;50.082;18.178;2023-04-22T02:18:12;25.50;;;11.90;;
76336;SDS011;65157;50.082;18.178;2023-04-22T02:20:40;25.10;;;11.40;;
76336;SDS011;65157;50.082;18.178;2023-04-22T02:23:07;22.90;;;12.40;;
76336;SDS011;65157;50.082;18.178;2023-04-22T02:25:34;22.60;;;11.30;;
76336;SDS011;65157;50.082;18.178;2023-04-22T02:28:07;23.80;;;11.70;;
76336;SDS011;65157;50.082;18.178;2023-04-22T02:30:34;25.90;;;12.20;;
76336;SDS011;65157;50.082;18.178;2023-04-22T02:33:01;33.90;;;13.60;;
76336;SDS011;65157;50.082;18.178;2023-04-22T02:35:27;28.90;;;13.90;;
76336;SDS011;65157;50.082;18.178;2023-04-22T02:37:57;27.80;;;14.30;;
76336;SDS011;65157;50.082;18.178;2023-04-22T02:40:23;24.30;;;13.00;;
76336;SDS011;65157;50.082;18.178;2023-04-22T02:42:50;24.60;;;12.10;;
76336;SDS011;65157;50.082;18.178;2023-04-22T02:45:20;28.90;;;13.20;;
76336;SDS011;65157;50.082;18.178;2023-04-22T02:47:46;24.10;;;12.90;;
76336;SDS011;65157;50.082;18.178;2023-04-22T02:50:13;21.50;;;11.50;;
76336;SDS011;65157;50.082;18.178;2023-04-22T02:52:40;25.70;;;11.80;;
76336;SDS011;65157;50.082;18.178;2023-04-22T02:55:07;22.10;;;11.20;;
76336;SDS011;65157;50.082;18.178;2023-04-22T02:57:37;20.90;;;11.00;;
76336;SDS011;65157;50.082;18.178;2023-04-22T03:00:06;18.30;;;9.90;;
76336;SDS011;65157;50.082;18.178;2023-04-22T03:02:33;22.60;;;11.00;;
76336;SDS011;65157;50.082;18.178;2023-04-22T03:05:00;25.80;;;11.30;;
76336;SDS011;65157;50.082;18.178;2023-04-22T03:07:27;27.30;;;11.70;;
76336;SDS011;65157;50.082;18.178;2023-04-22T03:09:53;23.40;;;11.40;;
76336;SDS011;65157;50.082;18.178;2023-04-22T03:12:20;23.10;;;11.90;;
76336;SDS011;65157;50.082;18.178;2023-04-22T03:14:47;23.90;;;11.60;;
76336;SDS011;65157;50.082;18.178;2023-04-22T03:17:14;21.80;;;12.00;;
76336;SDS011;65157;50.082;18.178;2023-04-22T03:19:41;22.80;;;11.80;;
76336;SDS011;65157;50.082;18.178;2023-04-22T03:22:07;21.20;;;11.50;;
76336;SDS011;65157;50.082;18.178;2023-04-22T03:24:34;23.70;;;12.00;;
76336;SDS011;65157;50.082;18.178;2023-04-22T03:27:01;26.00;;;11.70;;
76336;SDS011;65157;50.082;18.178;2023-04-22T03:29:27;26.00;;;11.80;;
76336;SDS011;65157;50.082;18.178;2023-04-22T03:31:54;23.60;;;12.30;;
76336;SDS011;65157;50.082;18.178;2023-04-22T03:34:21;26.00;;;11.90;;
76336;SDS011;65157;50.082;18.178;2023-04-22T03:36:47;28.30;;;11.60;;
76336;SDS011;65157;50.082;18.178;2023-04-22T03:39:14;24.00;;;11.30;;
76336;SDS011;65157;50.082;18.178;2023-04-22T03:41:41;24.80;;;11.70;;
76336;SDS011;65157;50.082;18.178;2023-04-22T03:44:07;21.70;;;11.50;;
76336;SDS011;65157;50.082;18.178;2023-04-22T03:46:34;19.90;;;11.80;;
76336;SDS011;65157;50.082;18.178;2023-04-22T03:49:01;21.50;;;11.70;;
76336;SDS011;65157;50.082;18.178;2023-04-22T03:51:28;24.70;;;11.90;;
76336;SDS011;65157;50.082;18.178;2023-04-22T03:53:55;25.30;;;11.20;;
76336;SDS011;65157;50.082;18.178;2023-04-22T03:56:28;23.10;;;12.50;;
76336;SDS011;65157;50.082;18.178;2023-04-22T03:58:54;22.10;;;11.90;;
76336;SDS011;65157;50.082;18.178;2023-04-22T04:01:21;24.90;;;11.80;;
76336;SDS011;65157;50.082;18.178;2023-04-22T04:03:50;21.60;;;11.60;;
76336;SDS011;65157;50.082;18.178;2023-04-22T04:06:17;25.10;;;11.70;;
76336;SDS011;65157;50.082;18.178;2023-04-22T04:08:43;25.40;;;12.20;;
76336;SDS011;65157;50.082;18.178;2023-04-22T04:11:11;25.30;;;13.30;;
76336;SDS011;65157;50.082;18.178;2023-04-22T04:13:38;23.20;;;11.50;;
76336;SDS011;65157;50.082;18.178;2023-04-22T04:16:05;26.10;;;12.00;;
76336;SDS011;65157;50.082;18.178;2023-04-22T04:18:31;23.70;;;11.60;;
76336;SDS011;65157;50.082;18.178;2023-04-22T04:20:58;24.50;;;11.70;;
76336;SDS011;65157;50.082;18.178;2023-04-22T04:23:25;26.40;;;13.10;;
76336;SDS011;65157;50.082;18.178;2023-04-22T04:25:52;25.30;;;11.90;;
76336;SDS011;65157;50.082;18.178;2023-04-22T04:28:20;27.90;;;13.60;;
76336;SDS011;65157;50.082;18.178;2023-04-22T04:30:47;25.90;;;12.90;;
76336;SDS011;65157;50.082;18.178;2023-04-22T04:33:16;28.20;;;12.40;;
76336;SDS011;65157;50.082;18.178;2023-04-22T04:35:42;24.10;;;12.90;;
76336;SDS011;65157;50.082;18.178;2023-04-22T04:38:09;24.30;;;11.00;;
76336;SDS011;65157;50.082;18.178;2023-04-22T04:40:37;24.00;;;12.30;;
76336;SDS011;65157;50.082;18.178;2023-04-22T04:43:04;23.20;;;11.60;;
76336;SDS011;65157;50.082;18.178;2023-04-22T04:45:31;27.30;;;14.60;;
76336;SDS011;65157;50.082;18.178;2023-04-22T04:47:59;30.40;;;16.00;;
76336;SDS011;65157;50.082;18.178;2023-04-22T04:50:26;27.10;;;14.10;;
76336;SDS011;65157;50.082;18.178;2023-04-22T04:52:53;25.10;;;12.10;;
76336;SDS011;65157;50.082;18.178;2023-04-22T05:00:16;26.80;;;12.60;;
76336;SDS011;65157;50.082;18.178;2023-04-22T05:02:46;24.10;;;11.60;;
76336;SDS011;65157;50.082;18.178;2023-04-22T05:05:13;25.30;;;12.00;;
76336;SDS011;65157;50.082;18.178;2023-04-22T05:07:39;18.10;;;10.00;;
76336;SDS011;65157;50.082;18.178;2023-04-22T05:10:06;21.30;;;11.40;;
76336;SDS011;65157;50.082;18.178;2023-04-22T05:12:34;25.30;;;13.20;;
76336;SDS011;65157;50.082;18.178;2023-04-22T05:15:01;29.80;;;13.40;;
76336;SDS011;65157;50.082;18.178;2023-04-22T05:17:27;30.60;;;13.30;;
76336;SDS011;65157;50.082;18.178;2023-04-22T05:19:54;27.60;;;13.20;;
76336;SDS011;65157;50.082;18.178;2023-04-22T05:22:21;27.20;;;12.70;;
76336;SDS011;65157;50.082;18.178;2023-04-22T05:29:41;25.40;;;11.70;;
76336;SDS011;65157;50.082;18.178;2023-04-22T05:32:08;24.90;;;12.50;;
76336;SDS011;65157;50.082;18.178;2023-04-22T05:34:35;21.50;;;11.20;;
76336;SDS011;65157;50.082;18.178;2023-04-22T05:37:05;24.90;;;11.70;;
76336;SDS011;65157;50.082;18.178;2023-04-22T05:39:35;22.70;;;11.90;;
76336;SDS011;65157;50.082;18.178;2023-04-22T05:42:02;18.80;;;10.50;;
76336;SDS011;65157;50.082;18.178;2023-04-22T05:44:29;21.00;;;11.70;;
76336;SDS011;65157;50.082;18.178;2023-04-22T05:46:59;17.70;;;10.50;;
76336;SDS011;65157;50.082;18.178;2023-04-22T05:49:29;21.80;;;10.80;;
76336;SDS011;65157;50.082;18.178;2023-04-22T05:51:55;18.70;;;10.30;;
76336;SDS011;65157;50.082;18.178;2023-04-22T05:54:22;16.90;;;10.00;;
76336;SDS011;65157;50.082;18.178;2023-04-22T05:56:49;16.10;;;8.80;;
76336;SDS011;65157;50.082;18.178;2023-04-22T05:59:19;14.20;;;8.60;;
76336;SDS011;65157;50.082;18.178;2023-04-22T06:01:46;12.60;;;8.10;;
76336;SDS011;65157;50.082;18.178;2023-04-22T06:04:13;17.90;;;9.80;;
76336;SDS011;65157;50.082;18.178;2023-04-22T06:06:42;13.60;;;8.80;;
76336;SDS011;65157;50.082;18.178;2023-04-22T06:09:08;16.70;;;9.40;;
76336;SDS011;65157;50.082;18.178;2023-04-22T06:11:35;17.40;;;9.60;;
76336;SDS011;65157;50.082;18.178;2023-04-22T06:14:02;17.50;;;10.20;;
76336;SDS011;65157;50.082;18.178;2023-04-22T06:16:34;17.70;;;9.90;;
76336;SDS011;65157;50.082;18.178;2023-04-22T06:19:10;15.10;;;9.70;;
76336;SDS011;65157;50.082;18.178;2023-04-22T06:21:36;17.20;;;10.40;;
76336;SDS011;65157;50.082;18.178;2023-04-22T06:24:05;15.90;;;10.30;;
76336;SDS011;65157;50.082;18.178;2023-04-22T06:26:32;18.60;;;11.00;;
76336;SDS011;65157;50.082;18.178;2023-04-22T06:29:00;18.00;;;11.90;;
76336;SDS011;65157;50.082;18.178;2023-04-22T06:31:27;18.70;;;10.90;;
76336;SDS011;65157;50.082;18.178;2023-04-22T06:33:54;20.40;;;11.90;;
76336;SDS011;65157;50.082;18.178;2023-04-22T06:36:21;20.80;;;12.10;;
76336;SDS011;65157;50.082;18.178;2023-04-22T06:41:15;20.40;;;11.90;;
76336;SDS011;65157;50.082;18.178;2023-04-22T06:43:42;19.30;;;11.20;;
76336;SDS011;65157;50.082;18.178;2023-04-22T06:46:09;21.30;;;11.90;;
76336;SDS011;65157;50.082;18.178;2023-04-22T06:48:36;19.00;;;11.70;;
76336;SDS011;65157;50.082;18.178;2023-04-22T06:51:02;23.20;;;12.20;;
76336;SDS011;65157;50.082;18.178;2023-04-22T06:53:29;25.50;;;13.80;;
76336;SDS011;65157;50.082;18.178;2023-04-22T06:55:56;21.20;;;12.70;;
76336;SDS011;65157;50.082;18.178;2023-04-22T06:58:23;22.60;;;12.50;;
76336;SDS011;65157;50.082;18.178;2023-04-22T07:00:49;24.80;;;13.70;;
76336;SDS011;65157;50.082;18.178;2023-04-22T07:03:17;22.40;;;14.20;;
76336;SDS011;65157;50.082;18.178;2023-04-22T07:05:43;28.00;;;17.10;;
76336;SDS011;65157;50.082;18.178;2023-04-22T07:08:11;25.70;;;16.20;;
76336;SDS011;65157;50.082;18.178;2023-04-22T07:13:05;25.20;;;15.00;;
76336;SDS011;65157;50.082;18.178;2023-04-22T07:15:32;20.50;;;13.90;;
76336;SDS011;65157;50.082;18.178;2023-04-22T07:17:59;24.30;;;14.50;;
76336;SDS011;65157;50.082;18.178;2023-04-22T07:20:26;23.00;;;13.70;;
76336;SDS011;65157;50.082;18.178;2023-04-22T07:22:52;20.90;;;13.60;;
76336;SDS011;65157;50.082;18.178;2023-04-22T07:25:19;25.10;;;14.20;;
76336;SDS011;65157;50.082;18.178;2023-04-22T07:27:46;24.20;;;16.40;;
76336;SDS011;65157;50.082;18.178;2023-04-22T07:30:12;24.00;;;15.50;;
76336;SDS011;65157;50.082;18.178;2023-04-22T07:32:39;24.60;;;15.90;;
76336;SDS011;65157;50.082;18.178;2023-04-22T07:35:06;25.50;;;15.50;;
76336;SDS011;65157;50.082;18.178;2023-04-22T07:37:33;24.30;;;16.10;;
76336;SDS011;65157;50.082;18.178;2023-04-22T07:40:00;23.90;;;15.90;;
76336;SDS011;65157;50.082;18.178;2023-04-22T07:44:54;22.20;;;13.30;;
76336;SDS011;65157;50.082;18.178;2023-04-22T07:47:21;26.70;;;15.20;;
76336;SDS011;65157;50.082;18.178;2023-04-22T07:49:48;25.00;;;16.20;;
76336;SDS011;65157;50.082;18.178;2023-04-22T07:52:17;28.60;;;16.80;;
76336;SDS011;65157;50.082;18.178;2023-04-22T07:54:44;25.80;;;17.40;;
76336;SDS011;65157;50.082;18.178;2023-04-22T07:57:13;24.90;;;15.70;;
76336;SDS011;65157;50.082;18.178;2023-04-22T07:59:39;25.50;;;17.30;;
76336;SDS011;65157;50.082;18.178;2023-04-22T08:02:06;22.40;;;15.90;;
76336;SDS011;65157;50.082;18.178;2023-04-22T08:04:33;21.90;;;15.00;;
76336;SDS011;65157;50.082;18.178;2023-04-22T08:07:03;28.20;;;17.00;;
76336;SDS011;65157;50.082;18.178;2023-04-22T08:09:29;26.10;;;18.00;;
76336;SDS011;65157;50.082;18.178;2023-04-22T08:11:56;24.20;;;16.10;;
76336;SDS011;65157;50.082;18.178;2023-04-22T08:16:50;23.30;;;14.30;;
76336;SDS011;65157;50.082;18.178;2023-04-22T08:19:17;24.90;;;16.30;;
76336;SDS011;65157;50.082;18.178;2023-04-22T08:21:45;21.50;;;15.00;;
76336;SDS011;65157;50.082;18.178;2023-04-22T08:24:12;24.50;;;14.80;;
76336;SDS011;65157;50.082;18.178;2023-04-22T08:26:39;21.40;;;16.40;;
76336;SDS011;65157;50.082;18.178;2023-04-22T08:29:06;23.20;;;14.20;;
76336;SDS011;65157;50.082;18.178;2023-04-22T08:31:33;20.10;;;13.00;;
76336;SDS011;65157;50.082;18.178;2023-04-22T08:36:27;20.60;;;14.10;;
76336;SDS011;65157;50.082;18.178;2023-04-22T08:38:53;16.60;;;11.80;;
76336;SDS011;65157;50.082;18.178;2023-04-22T08:41:20;20.50;;;12.10;;
76336;SDS011;65157;50.082;18.178;2023-04-22T08:43:48;17.30;;;12.10;;
76336;SDS011;65157;50.082;18.178;2023-04-22T08:46:16;18.40;;;12.80;;
76336;SDS011;65157;50.082;18.178;2023-04-22T08:48:44;20.40;;;13.20;;
76336;SDS011;65157;50.082;18.178;2023-04-22T08:51:13;17.40;;;12.60;;
76336;SDS011;65157;50.082;18.178;2023-04-22T08:53:44;16.10;;;12.10;;
76336;SDS011;65157;50.082;18.178;2023-04-22T08:56:12;17.40;;;11.80;;
76336;SDS011;65157;50.082;18.178;2023-04-22T08:58:39;19.30;;;12.20;;
76336;SDS011;65157;50.082;18.178;2023-04-22T09:01:07;17.40;;;11.70;;
76336;SDS011;65157;50.082;18.178;2023-04-22T09:03:35;18.00;;;12.20;;
76336;SDS011;65157;50.082;18.178;2023-04-22T09:06:05;16.00;;;10.70;;
76336;SDS011;65157;50.082;18.178;2023-04-22T09:08:33;16.60;;;10.60;;
76336;SDS011;65157;50.082;18.178;2023-04-22T09:11:00;16.80;;;10.00;;
76336;SDS011;65157;50.082;18.178;2023-04-22T09:13:27;17.00;;;11.90;;
76336;SDS011;65157;50.082;18.178;2023-04-22T09:15:54;17.00;;;12.00;;
76336;SDS011;65157;50.082;18.178;2023-04-22T09:18:21;17.30;;;10.50;;
76336;SDS011;65157;50.082;18.178;2023-04-22T09:20:48;15.20;;;10.70;;
76336;SDS011;65157;50.082;18.178;2023-04-22T09:23:25;16.00;;;10.20;;
76336;SDS011;65157;50.082;18.178;2023-04-22T09:26:01;16.50;;;9.80;;
76336;SDS011;65157;50.082;18.178;2023-04-22T09:28:28;18.30;;;11.60;;
76336;SDS011;65157;50.082;18.178;2023-04-22T09:30:58;14.90;;;9.90;;
76336;SDS011;65157;50.082;18.178;2023-04-22T09:35:57;14.00;;;9.70;;
76336;SDS011;65157;50.082;18.178;2023-04-22T09:38:33;19.50;;;10.10;;
76336;SDS011;65157;50.082;18.178;2023-04-22T09:41:01;14.80;;;9.30;;
76336;SDS011;65157;50.082;18.178;2023-04-22T09:43:35;16.50;;;9.70;;
76336;SDS011;65157;50.082;18.178;2023-04-22T09:46:05;16.70;;;10.20;;
76336;SDS011;65157;50.082;18.178;2023-04-22T09:48:32;13.00;;;8.70;;
76336;SDS011;65157;50.082;18.178;2023-04-22T09:50:58;13.90;;;9.30;;
76336;SDS011;65157;50.082;18.178;2023-04-22T09:53:28;12.70;;;9.20;;
76336;SDS011;65157;50.082;18.178;2023-04-22T09:56:02;10.50;;;7.30;;
76336;SDS011;65157;50.082;18.178;2023-04-22T09:58:30;12.00;;;7.60;;
76336;SDS011;65157;50.082;18.178;2023-04-22T10:00:57;15.50;;;9.40;;
76336;SDS011;65157;50.082;18.178;2023-04-22T10:03:31;14.90;;;9.70;;
76336;SDS011;65157;50.082;18.178;2023-04-22T10:05:58;11.90;;;8.20;;
76336;SDS011;65157;50.082;18.178;2023-04-22T10:08:24;12.80;;;8.50;;
76336;SDS011;65157;50.082;18.178;2023-04-22T10:10:52;11.70;;;9.00;;
76336;SDS011;65157;50.082;18.178;2023-04-22T10:13:19;12.90;;;8.30;;
76336;SDS011;65157;50.082;18.178;2023-04-22T10:15:49;8.70;;;7.10;;
76336;SDS011;65157;50.082;18.178;2023-04-22T10:20:48;11.10;;;7.20;;
76336;SDS011;65157;50.082;18.178;2023-04-22T10:23:20;9.00;;;6.50;;
76336;SDS011;65157;50.082;18.178;2023-04-22T10:25:48;10.60;;;7.60;;
76336;SDS011;65157;50.082;18.178;2023-04-22T10:28:20;11.50;;;7.30;;
76336;SDS011;65157;50.082;18.178;2023-04-22T10:30:48;11.50;;;7.20;;
76336;SDS011;65157;50.082;18.178;2023-04-22T10:36:07;9.10;;;5.60;;
76336;SDS011;65157;50.082;18.178;2023-04-22T10:41:21;8.90;;;6.90;;
76336;SDS011;65157;50.082;18.178;2023-04-22T10:43:55;8.80;;;6.60;;
76336;SDS011;65157;50.082;18.178;2023-04-22T10:48:56;8.00;;;4.70;;
76336;SDS011;65157;50.082;18.178;2023-04-22T10:51:37;6.90;;;5.70;;
76336;SDS011;65157;50.082;18.178;2023-04-22T10:54:05;8.10;;;5.10;;
76336;SDS011;65157;50.082;18.178;2023-04-22T10:56:33;6.70;;;5.20;;
76336;SDS011;65157;50.082;18.178;2023-04-22T10:59:04;5.80;;;4.90;;
76336;SDS011;65157;50.082;18.178;2023-04-22T11:01:41;5.50;;;4.90;;
76336;SDS011;65157;50.082;18.178;2023-04-22T11:04:20;6.90;;;4.50;;
76336;SDS011;65157;50.082;18.178;2023-04-22T11:07:11;8.10;;;6.00;;
76336;SDS011;65157;50.082;18.178;2023-04-22T11:09:44;6.90;;;5.00;;
76336;SDS011;65157;50.082;18.178;2023-04-22T11:15:06;4.00;;;3.40;;
76336;SDS011;65157;50.082;18.178;2023-04-22T11:17:38;8.10;;;3.90;;
76336;SDS011;65157;50.082;18.178;2023-04-22T11:20:11;5.00;;;4.30;;
76336;SDS011;65157;50.082;18.178;2023-04-22T11:22:47;5.80;;;3.10;;
76336;SDS011;65157;50.082;18.178;2023-04-22T11:25:22;6.40;;;3.50;;
76336;SDS011;65157;50.082;18.178;2023-04-22T11:27:53;7.10;;;3.50;;
76336;SDS011;65157;50.082;18.178;2023-04-22T11:30:21;4.00;;;3.50;;
76336;SDS011;65157;50.082;18.178;2023-04-22T11:32:50;4.70;;;3.60;;
76336;SDS011;65157;50.082;18.178;2023-04-22T11:35:19;4.10;;;3.40;;
76336;SDS011;65157;50.082;18.178;2023-04-22T11:37:49;4.50;;;3.70;;
76336;SDS011;65157;50.082;18.178;2023-04-22T11:40:29;5.60;;;4.60;;
76336;SDS011;65157;50.082;18.178;2023-04-22T11:42:56;5.40;;;4.00;;
76336;SDS011;65157;50.082;18.178;2023-04-22T11:45:24;5.80;;;4.30;;
76336;SDS011;65157;50.082;18.178;2023-04-22T11:47:56;5.20;;;3.70;;
76336;SDS011;65157;50.082;18.178;2023-04-22T11:50:24;4.40;;;3.40;;
76336;SDS011;65157;50.082;18.178;2023-04-22T11:52:53;5.10;;;3.80;;
76336;SDS011;65157;50.082;18.178;2023-04-22T11:55:27;6.50;;;4.50;;
76336;SDS011;65157;50.082;18.178;2023-04-22T11:57:55;4.70;;;3.60;;
76336;SDS011;65157;50.082;18.178;2023-04-22T12:00:29;4.90;;;4.20;;
76336;SDS011;65157;50.082;18.178;2023-04-22T12:03:03;6.40;;;3.70;;
76336;SDS011;65157;50.082;18.178;2023-04-22T12:08:05;4.40;;;3.40;;
76336;SDS011;65157;50.082;18.178;2023-04-22T12:10:42;4.00;;;3.60;;
76336;SDS011;65157;50.082;18.178;2023-04-22T12:13:44;3.70;;;3.30;;
76336;SDS011;65157;50.082;18.178;2023-04-22T12:16:13;4.70;;;3.80;;
76336;SDS011;65157;50.082;18.178;2023-04-22T12:18:55;3.90;;;3.00;;
76336;SDS011;65157;50.082;18.178;2023-04-22T12:23:50;7.00;;;3.70;;
76336;SDS011;65157;50.082;18.178;2023-04-22T12:26:21;5.00;;;3.50;;
76336;SDS011;65157;50.082;18.178;2023-04-22T12:28:49;4.80;;;4.00;;
76336;SDS011;65157;50.082;18.178;2023-04-22T12:31:16;4.10;;;3.50;;
76336;SDS011;65157;50.082;18.178;2023-04-22T12:33:44;4.80;;;3.20;;
76336;SDS011;65157;50.082;18.178;2023-04-22T12:36:11;3.40;;;3.00;;
76336;SDS011;65157;50.082;18.178;2023-04-22T12:38:39;5.10;;;4.10;;
76336;SDS011;65157;50.082;18.178;2023-04-22T12:41:06;5.50;;;3.50;;
76336;SDS011;65157;50.082;18.178;2023-04-22T12:43:33;6.40;;;3.20;;
76336;SDS011;65157;50.082;18.178;2023-04-22T12:46:04;4.20;;;3.00;;
76336;SDS011;65157;50.082;18.178;2023-04-22T12:48:33;4.50;;;3.80;;
76336;SDS011;65157;50.082;18.178;2023-04-22T12:51:01;4.00;;;3.30;;
76336;SDS011;65157;50.082;18.178;2023-04-22T12:53:31;3.70;;;3.20;;
76336;SDS011;65157;50.082;18.178;2023-04-22T12:56:02;7.40;;;3.50;;
76336;SDS011;65157;50.082;18.178;2023-04-22T12:58:35;4.60;;;3.90;;
76336;SDS011;65157;50.082;18.178;2023-04-22T13:01:02;4.00;;;3.10;;
76336;SDS011;65157;50.082;18.178;2023-04-22T13:03:29;4.40;;;3.40;;
76336;SDS011;65157;50.082;18.178;2023-04-22T13:05:56;4.80;;;3.90;;
76336;SDS011;65157;50.082;18.178;2023-04-22T13:08:23;3.90;;;3.10;;
76336;SDS011;65157;50.082;18.178;2023-04-22T13:10:49;5.70;;;3.90;;
76336;SDS011;65157;50.082;18.178;2023-04-22T13:13:17;4.10;;;3.70;;
76336;SDS011;65157;50.082;18.178;2023-04-22T13:15:44;4.50;;;3.30;;
76336;SDS011;65157;50.082;18.178;2023-04-22T13:18:11;3.80;;;3.50;;
76336;SDS011;65157;50.082;18.178;2023-04-22T13:20:38;5.70;;;3.90;;
76336;SDS011;65157;50.082;18.178;2023-04-22T13:23:05;5.20;;;3.30;;
76336;SDS011;65157;50.082;18.178;2023-04-22T13:25:31;4.30;;;3.50;;
76336;SDS011;65157;50.082;18.178;2023-04-22T13:27:58;8.10;;;4.10;;
76336;SDS011;65157;50.082;18.178;2023-04-22T13:30:25;3.70;;;3.00;;
76336;SDS011;65157;50.082;18.178;2023-04-22T13:32:53;4.40;;;4.10;;
76336;SDS011;65157;50.082;18.178;2023-04-22T13:35:20;4.60;;;3.60;;
76336;SDS011;65157;50.082;18.178;2023-04-22T13:40:19;4.40;;;3.40;;
76336;SDS011;65157;50.082;18.178;2023-04-22T13:42:46;4.10;;;3.10;;
76336;SDS011;65157;50.082;18.178;2023-04-22T13:45:13;6.50;;;3.50;;
76336;SDS011;65157;50.082;18.178;2023-04-22T13:47:43;3.70;;;3.30;;
76336;SDS011;65157;50.082;18.178;2023-04-22T13:50:13;4.10;;;3.60;;
76336;SDS011;65157;50.082;18.178;2023-04-22T13:52:42;4.50;;;3.90;;
76336;SDS011;65157;50.082;18.178;2023-04-22T13:55:15;5.40;;;3.80;;
76336;SDS011;65157;50.082;18.178;2023-04-22T13:57:44;3.60;;;2.90;;
76336;SDS011;65157;50.082;18.178;2023-04-22T14:00:11;4.00;;;3.50;;
76336;SDS011;65157;50.082;18.178;2023-04-22T14:02:39;4.00;;;3.60;;
76336;SDS011;65157;50.082;18.178;2023-04-22T14:05:10;7.50;;;4.50;;
76336;SDS011;65157;50.082;18.178;2023-04-22T14:07:44;4.60;;;4.10;;
76336;SDS011;65157;50.082;18.178;2023-04-22T14:10:11;4.60;;;3.40;;
76336;SDS011;65157;50.082;18.178;2023-04-22T14:12:38;4.80;;;4.30;;
76336;SDS011;65157;50.082;18.178;2023-04-22T14:15:06;6.10;;;3.50;;
76336;SDS011;65157;50.082;18.178;2023-04-22T14:17:36;4.70;;;3.40;;
76336;SDS011;65157;50.082;18.178;2023-04-22T14:20:03;4.50;;;3.00;;
76336;SDS011;65157;50.082;18.178;2023-04-22T14:22:33;4.50;;;4.00;;
76336;SDS011;65157;50.082;18.178;2023-04-22T14:25:03;4.20;;;3.80;;
76336;SDS011;65157;50.082;18.178;2023-04-22T14:27:32;4.70;;;4.30;;
76336;SDS011;65157;50.082;18.178;2023-04-22T14:30:05;5.90;;;4.10;;
76336;SDS011;65157;50.082;18.178;2023-04-22T14:32:33;4.30;;;3.80;;
76336;SDS011;65157;50.082;18.178;2023-04-22T14:35:07;5.00;;;3.90;;
76336;SDS011;65157;50.082;18.178;2023-04-22T14:37:35;7.10;;;4.20;;
76336;SDS011;65157;50.082;18.178;2023-04-22T14:40:02;5.40;;;3.90;;
76336;SDS011;65157;50.082;18.178;2023-04-22T14:42:46;6.20;;;3.40;;
76336;SDS011;65157;50.082;18.178;2023-04-22T14:45:16;4.70;;;3.70;;
76336;SDS011;65157;50.082;18.178;2023-04-22T14:47:43;4.10;;;3.20;;
76336;SDS011;65157;50.082;18.178;2023-04-22T14:50:10;3.90;;;3.40;;
76336;SDS011;65157;50.082;18.178;2023-04-22T14:52:37;7.40;;;4.40;;
76336;SDS011;65157;50.082;18.178;2023-04-22T14:55:04;5.70;;;4.10;;
76336;SDS011;65157;50.082;18.178;2023-04-22T14:57:31;6.30;;;4.40;;
76336;SDS011;65157;50.082;18.178;2023-04-22T14:59:58;4.40;;;3.90;;
76336;SDS011;65157;50.082;18.178;2023-04-22T15:02:27;11.60;;;4.00;;
76336;SDS011;65157;50.082;18.178;2023-04-22T15:04:54;7.60;;;3.60;;
76336;SDS011;65157;50.082;18.178;2023-04-22T15:07:21;5.80;;;3.70;;
76336;SDS011;65157;50.082;18.178;2023-04-22T15:09:48;5.50;;;3.50;;
76336;SDS011;65157;50.082;18.178;2023-04-22T15:12:15;5.70;;;3.50;;
76336;SDS011;65157;50.082;18.178;2023-04-22T15:14:43;4.10;;;3.70;;